sensor_id;sensor_type;location;lat;lon;timestamp;temperature;humidity
55642;DHT22;41509;53.108;6.100;2023-02-01T00:02:03;6.60;99.90
55642;DHT22;41509;53.108;6.100;2023-02-01T00:04:29;6.60;99.90
55642;DHT22;41509;53.108;6.100;2023-02-01T00:06:54;6.60;99.90
55642;DHT22;41509;53.108;6.100;2023-02-01T00:09:20;6.70;99.90
55642;DHT22;41509;53.108;6.100;2023-02-01T00:11:46;6.70;99.90
55642;DHT22;41509;53.108;6.100;2023-02-01T00:14:12;6.60;99.90
55642;DHT22;41509;53.108;6.100;2023-02-01T00:16:41;6.60;99.90
55642;DHT22;41509;53.108;6.100;2023-02-01T00:19:11;6.60;99.90
55642;DHT22;41509;53.108;6.100;2023-02-01T00:21:37;6.80;99.90
55642;DHT22;41509;53.108;6.100;2023-02-01T00:24:04;6.60;99.90
55642;DHT22;41509;53.108;6.100;2023-02-01T00:26:37;6.70;99.90
55642;DHT22;41509;53.108;6.100;2023-02-01T00:29:06;6.60;99.90
55642;DHT22;41509;53.108;6.100;2023-02-01T00:31:35;6.60;99.90
55642;DHT22;41509;53.108;6.100;2023-02-01T00:34:03;6.70;99.90
55642;DHT22;41509;53.108;6.100;2023-02-01T00:36:31;6.70;99.90
55642;DHT22;41509;53.108;6.100;2023-02-01T00:38:56;6.70;99.90
55642;DHT22;41509;53.108;6.100;2023-02-01T00:41:22;6.70;99.90
55642;DHT22;41509;53.108;6.100;2023-02-01T00:43:50;6.70;99.90
55642;DHT22;41509;53.108;6.100;2023-02-01T00:46:17;6.70;99.90
55642;DHT22;41509;53.108;6.100;2023-02-01T00:48:43;6.70;99.90
55642;DHT22;41509;53.108;6.100;2023-02-01T00:51:31;6.70;99.90
55642;DHT22;41509;53.108;6.100;2023-02-01T00:53:59;6.70;99.90
55642;DHT22;41509;53.108;6.100;2023-02-01T00:56:24;6.70;99.90
55642;DHT22;41509;53.108;6.100;2023-02-01T00:58:52;6.70;99.90
55642;DHT22;41509;53.108;6.100;2023-02-01T01:01:27;6.70;99.90
55642;DHT22;41509;53.108;6.100;2023-02-01T01:03:56;6.70;99.90
55642;DHT22;41509;53.108;6.100;2023-02-01T01:06:24;6.70;99.90
55642;DHT22;41509;53.108;6.100;2023-02-01T01:08:51;6.80;99.90
55642;DHT22;41509;53.108;6.100;2023-02-01T01:11:24;6.80;99.90
55642;DHT22;41509;53.108;6.100;2023-02-01T01:13:51;6.70;99.90
55642;DHT22;41509;53.108;6.100;2023-02-01T01:16:18;6.80;99.90
55642;DHT22;41509;53.108;6.100;2023-02-01T01:18:44;6.80;99.90
55642;DHT22;41509;53.108;6.100;2023-02-01T01:21:13;6.70;99.90
55642;DHT22;41509;53.108;6.100;2023-02-01T01:23:39;6.80;99.90
55642;DHT22;41509;53.108;6.100;2023-02-01T01:26:13;6.80;99.90
55642;DHT22;41509;53.108;6.100;2023-02-01T01:28:39;6.80;99.90
55642;DHT22;41509;53.108;6.100;2023-02-01T01:31:08;6.90;99.90
55642;DHT22;41509;53.108;6.100;2023-02-01T01:33:34;6.90;99.90
55642;DHT22;41509;53.108;6.100;2023-02-01T01:36:00;6.90;99.90
55642;DHT22;41509;53.108;6.100;2023-02-01T01:38:26;6.80;99.90
55642;DHT22;41509;53.108;6.100;2023-02-01T01:40:53;6.90;99.90
55642;DHT22;41509;53.108;6.100;2023-02-01T01:43:20;6.80;99.90
55642;DHT22;41509;53.108;6.100;2023-02-01T01:45:48;6.80;99.90
55642;DHT22;41509;53.108;6.100;2023-02-01T01:48:25;6.80;99.90
55642;DHT22;41509;53.108;6.100;2023-02-01T01:51:03;6.80;99.90
55642;DHT22;41509;53.108;6.100;2023-02-01T01:53:43;6.70;99.90
55642;DHT22;41509;53.108;6.100;2023-02-01T01:56:11;6.70;99.90
55642;DHT22;41509;53.108;6.100;2023-02-01T01:58:37;6.70;99.90
55642;DHT22;41509;53.108;6.100;2023-02-01T02:01:03;6.60;99.90
55642;DHT22;41509;53.108;6.100;2023-02-01T02:03:41;6.60;99.90
55642;DHT22;41509;53.108;6.100;2023-02-01T02:06:39;6.60;99.90
55642;DHT22;41509;53.108;6.100;2023-02-01T02:09:05;6.60;99.90
55642;DHT22;41509;53.108;6.100;2023-02-01T02:11:32;6.50;99.90
55642;DHT22;41509;53.108;6.100;2023-02-01T02:13:58;6.50;99.90
55642;DHT22;41509;53.108;6.100;2023-02-01T02:16:31;6.50;99.90
55642;DHT22;41509;53.108;6.100;2023-02-01T02:19:15;6.50;99.90
55642;DHT22;41509;53.108;6.100;2023-02-01T02:22:12;6.50;99.90
55642;DHT22;41509;53.108;6.100;2023-02-01T02:28:01;6.50;99.90
55642;DHT22;41509;53.108;6.100;2023-02-01T02:33:21;6.50;99.90
55642;DHT22;41509;53.108;6.100;2023-02-01T02:38:53;6.60;99.90
55642;DHT22;41509;53.108;6.100;2023-02-01T02:44:32;6.60;99.90
55642;DHT22;41509;53.108;6.100;2023-02-01T02:47:25;6.60;99.90
55642;DHT22;41509;53.108;6.100;2023-02-01T02:50:12;6.60;99.90
55642;DHT22;41509;53.108;6.100;2023-02-01T02:53:21;6.60;99.90
55642;DHT22;41509;53.108;6.100;2023-02-01T02:56:07;6.60;99.90
55642;DHT22;41509;53.108;6.100;2023-02-01T02:58:54;6.60;99.90
55642;DHT22;41509;53.108;6.100;2023-02-01T03:01:40;6.60;99.90
55642;DHT22;41509;53.108;6.100;2023-02-01T03:04:25;6.60;99.90
55642;DHT22;41509;53.108;6.100;2023-02-01T03:06:52;6.60;99.90
55642;DHT22;41509;53.108;6.100;2023-02-01T03:09:33;6.60;99.90
55642;DHT22;41509;53.108;6.100;2023-02-01T03:12:04;6.60;99.90
55642;DHT22;41509;53.108;6.100;2023-02-01T03:14:57;6.60;99.90
55642;DHT22;41509;53.108;6.100;2023-02-01T03:17:32;6.70;99.90
55642;DHT22;41509;53.108;6.100;2023-02-01T03:20:01;6.70;99.90
55642;DHT22;41509;53.108;6.100;2023-02-01T03:22:28;6.70;99.90
55642;DHT22;41509;53.108;6.100;2023-02-01T03:25:26;6.70;99.90
55642;DHT22;41509;53.108;6.100;2023-02-01T03:27:57;6.70;99.90
55642;DHT22;41509;53.108;6.100;2023-02-01T03:30:26;6.70;99.90
55642;DHT22;41509;53.108;6.100;2023-02-01T03:32:55;6.70;99.90
55642;DHT22;41509;53.108;6.100;2023-02-01T03:36:31;6.70;99.90
55642;DHT22;41509;53.108;6.100;2023-02-01T03:44:09;6.80;99.90
55642;DHT22;41509;53.108;6.100;2023-02-01T03:46:42;6.80;99.90
55642;DHT22;41509;53.108;6.100;2023-02-01T03:49:16;6.80;99.90
55642;DHT22;41509;53.108;6.100;2023-02-01T03:51:43;6.80;99.90
55642;DHT22;41509;53.108;6.100;2023-02-01T03:54:12;6.80;99.90
55642;DHT22;41509;53.108;6.100;2023-02-01T03:56:40;6.80;99.90
55642;DHT22;41509;53.108;6.100;2023-02-01T03:59:10;6.90;99.90
55642;DHT22;41509;53.108;6.100;2023-02-01T04:01:35;6.90;99.90
55642;DHT22;41509;53.108;6.100;2023-02-01T04:04:01;6.90;99.90
55642;DHT22;41509;53.108;6.100;2023-02-01T04:06:27;6.90;99.90
55642;DHT22;41509;53.108;6.100;2023-02-01T04:08:52;6.80;99.90
55642;DHT22;41509;53.108;6.100;2023-02-01T04:11:18;6.90;99.90
55642;DHT22;41509;53.108;6.100;2023-02-01T04:13:45;6.90;99.90
55642;DHT22;41509;53.108;6.100;2023-02-01T04:16:11;6.90;99.90
55642;DHT22;41509;53.108;6.100;2023-02-01T04:18:36;6.90;99.90
55642;DHT22;41509;53.108;6.100;2023-02-01T04:21:03;6.90;99.90
55642;DHT22;41509;53.108;6.100;2023-02-01T04:23:29;6.90;99.90
55642;DHT22;41509;53.108;6.100;2023-02-01T04:25:59;6.80;99.90
55642;DHT22;41509;53.108;6.100;2023-02-01T04:28:25;6.90;99.90
55642;DHT22;41509;53.108;6.100;2023-02-01T04:30:50;6.90;99.90
55642;DHT22;41509;53.108;6.100;2023-02-01T04:33:16;6.80;99.90
55642;DHT22;41509;53.108;6.100;2023-02-01T04:35:41;6.80;99.90
55642;DHT22;41509;53.108;6.100;2023-02-01T04:38:07;6.80;99.90
55642;DHT22;41509;53.108;6.100;2023-02-01T04:40:33;6.80;99.90
55642;DHT22;41509;53.108;6.100;2023-02-01T04:43:00;6.80;99.90
55642;DHT22;41509;53.108;6.100;2023-02-01T04:45:26;6.80;99.90
55642;DHT22;41509;53.108;6.100;2023-02-01T04:47:52;6.80;99.90
55642;DHT22;41509;53.108;6.100;2023-02-01T04:50:17;6.70;99.90
55642;DHT22;41509;53.108;6.100;2023-02-01T04:52:43;6.70;99.90
55642;DHT22;41509;53.108;6.100;2023-02-01T04:55:10;6.60;99.90
55642;DHT22;41509;53.108;6.100;2023-02-01T04:57:36;6.60;99.90
55642;DHT22;41509;53.108;6.100;2023-02-01T05:00:05;6.60;99.90
55642;DHT22;41509;53.108;6.100;2023-02-01T05:02:33;6.60;99.90
55642;DHT22;41509;53.108;6.100;2023-02-01T05:04:58;6.60;99.90
55642;DHT22;41509;53.108;6.100;2023-02-01T05:07:24;6.60;99.90
55642;DHT22;41509;53.108;6.100;2023-02-01T05:09:50;6.60;99.90
55642;DHT22;41509;53.108;6.100;2023-02-01T05:12:16;6.60;99.90
55642;DHT22;41509;53.108;6.100;2023-02-01T05:15:00;6.60;99.90
55642;DHT22;41509;53.108;6.100;2023-02-01T05:17:26;6.70;99.90
55642;DHT22;41509;53.108;6.100;2023-02-01T05:19:52;6.70;99.90
55642;DHT22;41509;53.108;6.100;2023-02-01T05:22:20;6.60;99.90
55642;DHT22;41509;53.108;6.100;2023-02-01T05:24:45;6.70;99.90
55642;DHT22;41509;53.108;6.100;2023-02-01T05:27:11;6.70;99.90
55642;DHT22;41509;53.108;6.100;2023-02-01T05:29:36;6.70;99.90
55642;DHT22;41509;53.108;6.100;2023-02-01T05:32:02;6.80;99.90
55642;DHT22;41509;53.108;6.100;2023-02-01T05:34:30;6.80;99.90
55642;DHT22;41509;53.108;6.100;2023-02-01T05:36:56;6.80;99.90
55642;DHT22;41509;53.108;6.100;2023-02-01T05:39:21;6.80;99.90
55642;DHT22;41509;53.108;6.100;2023-02-01T05:41:47;6.80;99.90
55642;DHT22;41509;53.108;6.100;2023-02-01T05:44:13;6.80;99.90
55642;DHT22;41509;53.108;6.100;2023-02-01T05:46:38;6.90;99.90
55642;DHT22;41509;53.108;6.100;2023-02-01T05:49:04;6.90;99.90
55642;DHT22;41509;53.108;6.100;2023-02-01T05:51:30;6.80;99.90
55642;DHT22;41509;53.108;6.100;2023-02-01T05:53:56;6.80;99.90
55642;DHT22;41509;53.108;6.100;2023-02-01T05:56:21;6.80;99.90
55642;DHT22;41509;53.108;6.100;2023-02-01T05:58:47;6.70;99.90
55642;DHT22;41509;53.108;6.100;2023-02-01T06:01:13;6.70;99.90
55642;DHT22;41509;53.108;6.100;2023-02-01T06:03:41;6.70;99.90
55642;DHT22;41509;53.108;6.100;2023-02-01T06:06:07;6.70;99.90
55642;DHT22;41509;53.108;6.100;2023-02-01T06:08:32;6.70;99.90
55642;DHT22;41509;53.108;6.100;2023-02-01T06:11:00;6.60;99.90
55642;DHT22;41509;53.108;6.100;2023-02-01T06:13:26;6.60;99.90
55642;DHT22;41509;53.108;6.100;2023-02-01T06:15:56;6.70;99.90
55642;DHT22;41509;53.108;6.100;2023-02-01T06:18:23;6.60;99.90
55642;DHT22;41509;53.108;6.100;2023-02-01T06:20:52;6.60;99.90
55642;DHT22;41509;53.108;6.100;2023-02-01T06:23:18;6.60;99.90
55642;DHT22;41509;53.108;6.100;2023-02-01T06:25:44;6.50;99.90
55642;DHT22;41509;53.108;6.100;2023-02-01T06:28:10;6.50;99.90
55642;DHT22;41509;53.108;6.100;2023-02-01T06:30:36;6.50;99.90
55642;DHT22;41509;53.108;6.100;2023-02-01T06:33:02;6.50;99.90
55642;DHT22;41509;53.108;6.100;2023-02-01T06:35:27;6.60;99.90
55642;DHT22;41509;53.108;6.100;2023-02-01T06:37:53;6.60;99.90
55642;DHT22;41509;53.108;6.100;2023-02-01T06:40:19;6.70;99.90
55642;DHT22;41509;53.108;6.100;2023-02-01T06:42:44;6.70;99.90
55642;DHT22;41509;53.108;6.100;2023-02-01T06:45:10;6.70;99.90
55642;DHT22;41509;53.108;6.100;2023-02-01T06:47:36;6.70;99.90
55642;DHT22;41509;53.108;6.100;2023-02-01T06:50:01;6.70;99.90
55642;DHT22;41509;53.108;6.100;2023-02-01T06:52:27;6.70;99.90
55642;DHT22;41509;53.108;6.100;2023-02-01T06:54:52;6.70;99.90
55642;DHT22;41509;53.108;6.100;2023-02-01T06:57:18;6.70;99.90
55642;DHT22;41509;53.108;6.100;2023-02-01T06:59:44;6.70;99.90
55642;DHT22;41509;53.108;6.100;2023-02-01T07:02:11;6.60;99.90
55642;DHT22;41509;53.108;6.100;2023-02-01T07:04:37;6.70;99.90
55642;DHT22;41509;53.108;6.100;2023-02-01T07:07:02;6.70;99.90
55642;DHT22;41509;53.108;6.100;2023-02-01T07:09:28;6.70;99.90
55642;DHT22;41509;53.108;6.100;2023-02-01T07:11:54;6.70;99.90
55642;DHT22;41509;53.108;6.100;2023-02-01T07:14:19;6.60;99.90
55642;DHT22;41509;53.108;6.100;2023-02-01T07:16:45;6.70;99.90
55642;DHT22;41509;53.108;6.100;2023-02-01T07:19:10;6.70;99.90
55642;DHT22;41509;53.108;6.100;2023-02-01T07:21:36;6.60;99.90
55642;DHT22;41509;53.108;6.100;2023-02-01T07:24:02;6.60;99.90
55642;DHT22;41509;53.108;6.100;2023-02-01T07:26:27;6.60;99.90
55642;DHT22;41509;53.108;6.100;2023-02-01T07:28:53;6.60;99.90
55642;DHT22;41509;53.108;6.100;2023-02-01T07:31:19;6.60;99.90
55642;DHT22;41509;53.108;6.100;2023-02-01T07:33:48;6.60;99.90
55642;DHT22;41509;53.108;6.100;2023-02-01T07:36:16;6.50;99.90
55642;DHT22;41509;53.108;6.100;2023-02-01T07:38:42;6.50;99.90
55642;DHT22;41509;53.108;6.100;2023-02-01T07:41:08;6.50;99.90
55642;DHT22;41509;53.108;6.100;2023-02-01T07:43:34;6.50;99.90
55642;DHT22;41509;53.108;6.100;2023-02-01T07:46:01;6.50;99.90
55642;DHT22;41509;53.108;6.100;2023-02-01T07:48:27;6.50;99.90
55642;DHT22;41509;53.108;6.100;2023-02-01T07:51:09;6.50;99.90
55642;DHT22;41509;53.108;6.100;2023-02-01T07:53:35;6.50;99.90
55642;DHT22;41509;53.108;6.100;2023-02-01T07:56:02;6.50;99.90
55642;DHT22;41509;53.108;6.100;2023-02-01T07:58:28;6.50;99.90
55642;DHT22;41509;53.108;6.100;2023-02-01T08:00:54;6.50;99.90
55642;DHT22;41509;53.108;6.100;2023-02-01T08:03:39;6.50;99.90
55642;DHT22;41509;53.108;6.100;2023-02-01T08:06:06;6.50;99.90
55642;DHT22;41509;53.108;6.100;2023-02-01T08:08:32;6.50;99.90
55642;DHT22;41509;53.108;6.100;2023-02-01T08:10:59;6.50;99.90
55642;DHT22;41509;53.108;6.100;2023-02-01T08:13:24;6.50;99.90
55642;DHT22;41509;53.108;6.100;2023-02-01T08:15:50;6.60;99.90
55642;DHT22;41509;53.108;6.100;2023-02-01T08:18:16;6.60;99.90
55642;DHT22;41509;53.108;6.100;2023-02-01T08:20:46;6.60;99.90
55642;DHT22;41509;53.108;6.100;2023-02-01T08:23:13;6.60;99.90
55642;DHT22;41509;53.108;6.100;2023-02-01T08:25:38;6.60;99.90
55642;DHT22;41509;53.108;6.100;2023-02-01T08:28:06;6.60;99.90
55642;DHT22;41509;53.108;6.100;2023-02-01T08:30:31;6.60;99.90
55642;DHT22;41509;53.108;6.100;2023-02-01T08:32:57;6.60;99.90
55642;DHT22;41509;53.108;6.100;2023-02-01T08:35:23;6.70;99.90
55642;DHT22;41509;53.108;6.100;2023-02-01T08:37:52;6.60;99.90
55642;DHT22;41509;53.108;6.100;2023-02-01T08:40:18;6.70;99.90
55642;DHT22;41509;53.108;6.100;2023-02-01T08:42:44;6.70;99.90
55642;DHT22;41509;53.108;6.100;2023-02-01T08:45:16;6.70;99.90
55642;DHT22;41509;53.108;6.100;2023-02-01T08:47:42;6.70;99.90
55642;DHT22;41509;53.108;6.100;2023-02-01T08:50:09;6.80;99.90
55642;DHT22;41509;53.108;6.100;2023-02-01T08:52:34;6.80;99.90
55642;DHT22;41509;53.108;6.100;2023-02-01T08:55:00;6.80;99.90
55642;DHT22;41509;53.108;6.100;2023-02-01T08:57:26;6.80;99.90
55642;DHT22;41509;53.108;6.100;2023-02-01T08:59:51;6.80;99.90
55642;DHT22;41509;53.108;6.100;2023-02-01T09:02:17;6.80;99.90
55642;DHT22;41509;53.108;6.100;2023-02-01T09:04:43;6.80;99.90
55642;DHT22;41509;53.108;6.100;2023-02-01T09:07:10;6.80;99.90
55642;DHT22;41509;53.108;6.100;2023-02-01T09:09:36;6.80;99.90
55642;DHT22;41509;53.108;6.100;2023-02-01T09:12:02;6.80;99.90
55642;DHT22;41509;53.108;6.100;2023-02-01T09:14:28;6.80;99.90
55642;DHT22;41509;53.108;6.100;2023-02-01T09:16:54;6.80;99.90
55642;DHT22;41509;53.108;6.100;2023-02-01T09:19:19;6.80;99.90
55642;DHT22;41509;53.108;6.100;2023-02-01T09:21:45;6.80;99.90
55642;DHT22;41509;53.108;6.100;2023-02-01T09:24:11;6.90;99.90
55642;DHT22;41509;53.108;6.100;2023-02-01T09:26:37;6.80;99.90
55642;DHT22;41509;53.108;6.100;2023-02-01T09:29:03;6.80;99.90
55642;DHT22;41509;53.108;6.100;2023-02-01T09:31:29;6.80;99.90
55642;DHT22;41509;53.108;6.100;2023-02-01T09:33:55;6.80;99.90
55642;DHT22;41509;53.108;6.100;2023-02-01T09:36:21;6.80;99.90
55642;DHT22;41509;53.108;6.100;2023-02-01T09:38:49;6.80;99.90
55642;DHT22;41509;53.108;6.100;2023-02-01T09:41:38;6.80;99.90
55642;DHT22;41509;53.108;6.100;2023-02-01T09:44:16;6.90;99.90
55642;DHT22;41509;53.108;6.100;2023-02-01T09:46:43;6.90;99.90
55642;DHT22;41509;53.108;6.100;2023-02-01T09:49:26;6.90;99.90
55642;DHT22;41509;53.108;6.100;2023-02-01T09:51:54;6.90;99.90
55642;DHT22;41509;53.108;6.100;2023-02-01T09:54:24;6.90;99.90
55642;DHT22;41509;53.108;6.100;2023-02-01T09:56:58;6.90;99.90
55642;DHT22;41509;53.108;6.100;2023-02-01T10:02:23;6.90;99.90
55642;DHT22;41509;53.108;6.100;2023-02-01T10:04:49;6.90;99.90
55642;DHT22;41509;53.108;6.100;2023-02-01T10:10:01;6.90;99.90
55642;DHT22;41509;53.108;6.100;2023-02-01T10:15:37;6.90;99.90
55642;DHT22;41509;53.108;6.100;2023-02-01T10:24:08;7.00;99.90
55642;DHT22;41509;53.108;6.100;2023-02-01T10:26:42;7.10;99.90
55642;DHT22;41509;53.108;6.100;2023-02-01T10:29:18;7.20;99.90
55642;DHT22;41509;53.108;6.100;2023-02-01T10:31:44;7.20;99.90
55642;DHT22;41509;53.108;6.100;2023-02-01T10:34:32;7.20;99.90
55642;DHT22;41509;53.108;6.100;2023-02-01T10:37:23;7.30;99.90
55642;DHT22;41509;53.108;6.100;2023-02-01T10:39:49;7.30;99.90
55642;DHT22;41509;53.108;6.100;2023-02-01T10:42:20;7.40;99.90
55642;DHT22;41509;53.108;6.100;2023-02-01T10:44:47;7.40;99.90
55642;DHT22;41509;53.108;6.100;2023-02-01T10:47:14;7.40;99.90
55642;DHT22;41509;53.108;6.100;2023-02-01T10:49:55;7.40;99.90
55642;DHT22;41509;53.108;6.100;2023-02-01T10:55:45;7.40;99.90
55642;DHT22;41509;53.108;6.100;2023-02-01T10:58:20;7.50;99.90
55642;DHT22;41509;53.108;6.100;2023-02-01T11:01:20;7.50;99.90
55642;DHT22;41509;53.108;6.100;2023-02-01T11:09:18;7.50;99.90
55642;DHT22;41509;53.108;6.100;2023-02-01T11:14:18;7.60;99.90
55642;DHT22;41509;53.108;6.100;2023-02-01T11:16:59;7.70;99.90
55642;DHT22;41509;53.108;6.100;2023-02-01T11:19:26;7.70;99.90
55642;DHT22;41509;53.108;6.100;2023-02-01T11:21:54;7.70;99.90
55642;DHT22;41509;53.108;6.100;2023-02-01T11:24:29;7.70;99.90
55642;DHT22;41509;53.108;6.100;2023-02-01T11:26:58;7.70;99.90
55642;DHT22;41509;53.108;6.100;2023-02-01T11:29:25;7.70;99.90
55642;DHT22;41509;53.108;6.100;2023-02-01T11:31:57;7.70;99.90
55642;DHT22;41509;53.108;6.100;2023-02-01T11:34:37;7.70;99.90
55642;DHT22;41509;53.108;6.100;2023-02-01T11:37:03;7.60;99.90
55642;DHT22;41509;53.108;6.100;2023-02-01T11:39:34;7.60;99.90
55642;DHT22;41509;53.108;6.100;2023-02-01T11:42:17;7.70;99.90
55642;DHT22;41509;53.108;6.100;2023-02-01T11:44:44;7.70;99.90
55642;DHT22;41509;53.108;6.100;2023-02-01T11:47:28;7.60;99.90
55642;DHT22;41509;53.108;6.100;2023-02-01T11:50:02;7.70;99.90
55642;DHT22;41509;53.108;6.100;2023-02-01T12:05:58;7.80;99.90
55642;DHT22;41509;53.108;6.100;2023-02-01T12:09:04;7.90;99.90
55642;DHT22;41509;53.108;6.100;2023-02-01T12:19:46;8.00;99.90
55642;DHT22;41509;53.108;6.100;2023-02-01T12:22:32;8.10;99.90
55642;DHT22;41509;53.108;6.100;2023-02-01T12:25:16;8.10;99.90
55642;DHT22;41509;53.108;6.100;2023-02-01T12:36:14;8.20;99.90
55642;DHT22;41509;53.108;6.100;2023-02-01T12:41:47;8.20;99.90
55642;DHT22;41509;53.108;6.100;2023-02-01T12:44:30;8.20;99.90
55642;DHT22;41509;53.108;6.100;2023-02-01T12:47:35;8.20;99.90
55642;DHT22;41509;53.108;6.100;2023-02-01T12:50:14;8.20;99.90
55642;DHT22;41509;53.108;6.100;2023-02-01T12:52:48;8.30;99.90
55642;DHT22;41509;53.108;6.100;2023-02-01T12:55:23;8.30;99.90
55642;DHT22;41509;53.108;6.100;2023-02-01T12:57:54;8.30;99.90
55642;DHT22;41509;53.108;6.100;2023-02-01T13:05:51;8.30;99.90
55642;DHT22;41509;53.108;6.100;2023-02-01T13:08:26;8.20;99.90
55642;DHT22;41509;53.108;6.100;2023-02-01T13:11:04;8.20;99.90
55642;DHT22;41509;53.108;6.100;2023-02-01T13:16:14;8.20;99.90
55642;DHT22;41509;53.108;6.100;2023-02-01T13:18:43;8.30;99.90
55642;DHT22;41509;53.108;6.100;2023-02-01T13:21:16;8.20;99.90
55642;DHT22;41509;53.108;6.100;2023-02-01T13:23:46;8.20;99.90
55642;DHT22;41509;53.108;6.100;2023-02-01T13:26:12;8.20;99.90
55642;DHT22;41509;53.108;6.100;2023-02-01T13:28:45;8.30;99.90
55642;DHT22;41509;53.108;6.100;2023-02-01T13:39:48;8.30;99.90
55642;DHT22;41509;53.108;6.100;2023-02-01T13:44:59;8.40;99.90
55642;DHT22;41509;53.108;6.100;2023-02-01T13:47:30;8.40;99.90
55642;DHT22;41509;53.108;6.100;2023-02-01T13:49:59;8.50;99.90
55642;DHT22;41509;53.108;6.100;2023-02-01T13:52:39;8.50;99.90
55642;DHT22;41509;53.108;6.100;2023-02-01T13:55:24;8.50;99.90
55642;DHT22;41509;53.108;6.100;2023-02-01T13:57:52;8.60;99.90
55642;DHT22;41509;53.108;6.100;2023-02-01T14:00:35;8.50;99.90
55642;DHT22;41509;53.108;6.100;2023-02-01T14:13:37;8.40;99.90
55642;DHT22;41509;53.108;6.100;2023-02-01T14:21:21;8.30;99.90
55642;DHT22;41509;53.108;6.100;2023-02-01T14:44:44;8.20;99.90
55642;DHT22;41509;53.108;6.100;2023-02-01T14:47:28;8.20;99.90
55642;DHT22;41509;53.108;6.100;2023-02-01T14:50:11;8.20;99.90
55642;DHT22;41509;53.108;6.100;2023-02-01T14:52:44;8.20;99.90
55642;DHT22;41509;53.108;6.100;2023-02-01T14:55:28;8.20;99.90
55642;DHT22;41509;53.108;6.100;2023-02-01T14:57:57;8.20;99.90
55642;DHT22;41509;53.108;6.100;2023-02-01T15:00:29;8.30;99.90
55642;DHT22;41509;53.108;6.100;2023-02-01T15:03:19;8.30;99.90
55642;DHT22;41509;53.108;6.100;2023-02-01T15:05:58;8.30;99.90
55642;DHT22;41509;53.108;6.100;2023-02-01T15:08:31;8.30;99.90
55642;DHT22;41509;53.108;6.100;2023-02-01T15:11:02;8.30;99.90
55642;DHT22;41509;53.108;6.100;2023-02-01T15:13:29;8.30;99.90
55642;DHT22;41509;53.108;6.100;2023-02-01T15:16:21;8.30;99.90
55642;DHT22;41509;53.108;6.100;2023-02-01T15:18:48;8.30;99.90
55642;DHT22;41509;53.108;6.100;2023-02-01T15:21:20;8.20;99.90
55642;DHT22;41509;53.108;6.100;2023-02-01T15:23:47;8.30;99.90
55642;DHT22;41509;53.108;6.100;2023-02-01T15:26:27;8.20;99.90
55642;DHT22;41509;53.108;6.100;2023-02-01T15:28:53;8.20;99.90
55642;DHT22;41509;53.108;6.100;2023-02-01T15:31:35;8.10;99.90
55642;DHT22;41509;53.108;6.100;2023-02-01T15:34:02;8.10;99.90
55642;DHT22;41509;53.108;6.100;2023-02-01T15:36:27;8.10;99.90
55642;DHT22;41509;53.108;6.100;2023-02-01T15:39:14;8.10;99.90
55642;DHT22;41509;53.108;6.100;2023-02-01T15:41:48;8.10;99.90
55642;DHT22;41509;53.108;6.100;2023-02-01T15:44:27;8.00;99.90
55642;DHT22;41509;53.108;6.100;2023-02-01T15:46:54;8.00;99.90
55642;DHT22;41509;53.108;6.100;2023-02-01T15:49:31;8.00;99.90
55642;DHT22;41509;53.108;6.100;2023-02-01T15:51:59;8.00;99.90
55642;DHT22;41509;53.108;6.100;2023-02-01T15:54:43;7.90;99.90
55642;DHT22;41509;53.108;6.100;2023-02-01T15:57:11;7.90;99.90
55642;DHT22;41509;53.108;6.100;2023-02-01T15:59:46;7.80;99.90
55642;DHT22;41509;53.108;6.100;2023-02-01T16:02:34;7.80;99.90
55642;DHT22;41509;53.108;6.100;2023-02-01T16:05:02;7.80;99.90
55642;DHT22;41509;53.108;6.100;2023-02-01T16:07:31;7.70;99.90
55642;DHT22;41509;53.108;6.100;2023-02-01T16:09:59;7.70;99.90
55642;DHT22;41509;53.108;6.100;2023-02-01T16:12:32;7.70;99.90
55642;DHT22;41509;53.108;6.100;2023-02-01T16:15:01;7.70;99.90
55642;DHT22;41509;53.108;6.100;2023-02-01T16:17:27;7.60;99.90
55642;DHT22;41509;53.108;6.100;2023-02-01T16:19:52;7.60;99.90
55642;DHT22;41509;53.108;6.100;2023-02-01T16:22:18;7.60;99.90
55642;DHT22;41509;53.108;6.100;2023-02-01T16:24:44;7.60;99.90
55642;DHT22;41509;53.108;6.100;2023-02-01T16:27:09;7.50;99.90
55642;DHT22;41509;53.108;6.100;2023-02-01T16:29:35;7.50;99.90
55642;DHT22;41509;53.108;6.100;2023-02-01T16:32:01;7.50;99.90
55642;DHT22;41509;53.108;6.100;2023-02-01T16:34:26;7.50;99.90
55642;DHT22;41509;53.108;6.100;2023-02-01T16:36:52;7.50;99.90
55642;DHT22;41509;53.108;6.100;2023-02-01T16:39:21;7.50;99.90
55642;DHT22;41509;53.108;6.100;2023-02-01T16:41:46;7.60;99.90
55642;DHT22;41509;53.108;6.100;2023-02-01T16:44:12;7.60;99.90
55642;DHT22;41509;53.108;6.100;2023-02-01T16:46:43;7.60;99.90
55642;DHT22;41509;53.108;6.100;2023-02-01T16:49:24;7.50;99.90
55642;DHT22;41509;53.108;6.100;2023-02-01T16:51:52;7.50;99.90
55642;DHT22;41509;53.108;6.100;2023-02-01T16:54:20;7.50;99.90
55642;DHT22;41509;53.108;6.100;2023-02-01T16:56:46;7.40;99.90
55642;DHT22;41509;53.108;6.100;2023-02-01T16:59:12;7.50;99.90
55642;DHT22;41509;53.108;6.100;2023-02-01T17:01:38;7.40;99.90
55642;DHT22;41509;53.108;6.100;2023-02-01T17:04:06;7.40;99.90
55642;DHT22;41509;53.108;6.100;2023-02-01T17:06:32;7.30;99.90
55642;DHT22;41509;53.108;6.100;2023-02-01T17:08:59;7.30;99.90
55642;DHT22;41509;53.108;6.100;2023-02-01T17:11:26;7.30;99.90
55642;DHT22;41509;53.108;6.100;2023-02-01T17:13:52;7.30;99.90
55642;DHT22;41509;53.108;6.100;2023-02-01T17:18:49;7.20;99.90
55642;DHT22;41509;53.108;6.100;2023-02-01T17:21:15;7.20;99.90
55642;DHT22;41509;53.108;6.100;2023-02-01T17:23:41;7.10;99.90
55642;DHT22;41509;53.108;6.100;2023-02-01T17:26:09;7.10;99.90
55642;DHT22;41509;53.108;6.100;2023-02-01T17:28:35;7.00;99.90
55642;DHT22;41509;53.108;6.100;2023-02-01T17:31:01;7.00;99.90
55642;DHT22;41509;53.108;6.100;2023-02-01T17:33:33;7.00;99.90
55642;DHT22;41509;53.108;6.100;2023-02-01T17:35:59;7.00;99.90
55642;DHT22;41509;53.108;6.100;2023-02-01T17:38:25;7.00;99.90
55642;DHT22;41509;53.108;6.100;2023-02-01T17:40:51;6.90;99.90
55642;DHT22;41509;53.108;6.100;2023-02-01T17:43:23;6.90;99.90
55642;DHT22;41509;53.108;6.100;2023-02-01T17:45:55;6.90;99.90
55642;DHT22;41509;53.108;6.100;2023-02-01T17:48:22;7.00;99.90
55642;DHT22;41509;53.108;6.100;2023-02-01T17:50:49;7.00;99.90
55642;DHT22;41509;53.108;6.100;2023-02-01T17:53:19;7.00;99.90
55642;DHT22;41509;53.108;6.100;2023-02-01T17:55:48;7.00;99.90
55642;DHT22;41509;53.108;6.100;2023-02-01T17:58:16;7.00;99.90
55642;DHT22;41509;53.108;6.100;2023-02-01T18:00:43;7.00;99.90
55642;DHT22;41509;53.108;6.100;2023-02-01T18:03:24;7.00;99.90
55642;DHT22;41509;53.108;6.100;2023-02-01T18:05:51;7.00;99.90
55642;DHT22;41509;53.108;6.100;2023-02-01T18:08:28;6.90;99.90
55642;DHT22;41509;53.108;6.100;2023-02-01T18:10:56;6.90;99.90
55642;DHT22;41509;53.108;6.100;2023-02-01T18:13:26;7.00;99.90
55642;DHT22;41509;53.108;6.100;2023-02-01T18:15:52;7.00;99.90
55642;DHT22;41509;53.108;6.100;2023-02-01T18:18:18;6.90;99.90
55642;DHT22;41509;53.108;6.100;2023-02-01T18:20:45;6.90;99.90